Time;durP1;ratioP1;P1;durP2;ratioP2;P2;SDS_P1;SDS_P2;PMS_P1;PMS_P2;Temp;Humidity;BMP_temperature;BMP_pressure;BME280_temperature;BME280_humidity;BME280_pressure;Samples;Min_cycle;Max_cycle;Signal;HPM_P1;HPM_P2
2024/04/22 00:00:18;;;;;;;;;;;19.90;55.50;;;;;;1597004;73;1101;-67
2024/04/22 00:02:20;;;;;;;;;;;20.00;55.50;;;;;;1602596;73;646;-69
2024/04/22 00:04:22;;;;;;;;;;;20.00;55.50;;;;;;1604757;73;674;-68
2024/04/22 00:06:24;;;;;;;;;;;19.90;55.50;;;;;;1596604;73;1394;-69
2024/04/22 00:08:27;;;;;;;;;;;19.90;55.60;;;;;;1595563;73;1944;-67
2024/04/22 00:10:29;;;;;;;;;;;19.90;55.70;;;;;;1590199;73;1151;-68
2024/04/22 00:12:31;;;;;;;;;;;19.90;55.70;;;;;;1596120;73;835;-67
2024/04/22 00:14:32;;;;;;;;;;;19.90;55.70;;;;;;1588877;73;669;-67
2024/04/22 00:16:35;;;;;;;;;;;19.90;55.70;;;;;;1592001;73;827;-67
2024/04/22 00:18:36;;;;;;;;;;;19.90;55.70;;;;;;1594585;73;750;-67
2024/04/22 00:20:40;;;;;;;;;;;19.90;55.70;;;;;;1602375;73;1551;-65
2024/04/22 00:22:42;;;;;;;;;;;19.90;55.70;;;;;;1588151;73;1680;-65
2024/04/22 00:24:44;;;;;;;;;;;19.90;55.80;;;;;;1594069;73;725;-67
2024/04/22 00:26:46;;;;;;;;;;;19.90;55.70;;;;;;1601919;73;682;-69
2024/04/22 00:28:48;;;;;;;;;;;19.90;55.70;;;;;;1607150;73;1929;-65
2024/04/22 00:30:49;;;;;;;;;;;19.90;55.70;;;;;;1599481;73;1151;-66
2024/04/22 00:32:52;;;;;;;;;;;19.90;55.70;;;;;;1590005;73;651;-67
2024/04/22 00:34:54;;;;;;;;;;;19.90;55.70;;;;;;1601575;73;1537;-67
2024/04/22 00:36:56;;;;;;;;;;;19.90;55.70;;;;;;1604581;73;683;-68
2024/04/22 00:38:57;;;;;;;;;;;19.90;55.70;;;;;;1594289;73;749;-69
2024/04/22 00:40:59;;;;;;;;;;;19.90;55.70;;;;;;1591328;73;1143;-72
2024/04/22 00:43:01;;;;;;;;;;;19.90;55.80;;;;;;1592713;73;705;-70
2024/04/22 00:45:03;;;;;;;;;;;19.90;55.80;;;;;;1593788;73;679;-72
2024/04/22 00:47:05;;;;;;;;;;;19.90;55.80;;;;;;1598922;73;728;-70
2024/04/22 00:49:07;;;;;;;;;;;19.90;55.90;;;;;;1595595;73;1938;-71
2024/04/22 00:51:09;;;;;;;;;;;19.90;55.90;;;;;;1591732;73;1170;-69
2024/04/22 00:53:11;;;;;;;;;;;19.90;55.90;;;;;;1596071;73;701;-67
2024/04/22 00:55:13;;;;;;;;;;;19.90;56.00;;;;;;1595602;73;659;-67
2024/04/22 00:57:15;;;;;;;;;;;19.90;56.00;;;;;;1598890;73;720;-67
2024/04/22 00:59:17;;;;;;;;;;;19.90;56.00;;;;;;1592545;73;733;-68
2024/04/22 01:01:19;;;;;;;;;;;19.90;56.10;;;;;;1598739;73;1136;-67
2024/04/22 01:03:21;;;;;;;;;;;19.90;56.00;;;;;;1590770;73;1269;-68
2024/04/22 01:05:23;;;;;;;;;;;19.90;56.10;;;;;;1589847;73;700;-67
2024/04/22 01:07:25;;;;;;;;;;;19.90;56.10;;;;;;1599027;73;1926;-68
2024/04/22 01:09:26;;;;;;;;;;;19.90;56.20;;;;;;1591988;73;635;-70
2024/04/22 01:11:28;;;;;;;;;;;20.10;56.30;;;;;;1586265;73;1120;-66
2024/04/22 01:13:30;;;;;;;;;;;19.90;56.20;;;;;;1607044;73;645;-69
2024/04/22 01:15:32;;;;;;;;;;;19.90;56.20;;;;;;1604811;73;693;-67
2024/04/22 01:17:36;;;;;;;;;;;19.90;56.20;;;;;;1595515;73;1577;-69
2024/04/22 01:19:38;;;;;;;;;;;19.90;56.20;;;;;;1601496;73;1099;-67
2024/04/22 01:21:39;;;;;;;;;;;19.90;56.30;;;;;;1612958;73;1123;-68
2024/04/22 01:23:41;;;;;;;;;;;19.90;56.30;;;;;;1606812;73;750;-69
2024/04/22 01:25:45;;;;;;;;;;;19.90;56.30;;;;;;1595147;73;741;-68
2024/04/22 01:27:47;;;;;;;;;;;19.90;56.20;;;;;;1598049;73;1946;-67
2024/04/22 01:29:49;;;;;;;;;;;19.90;56.30;;;;;;1594584;73;1150;-67
2024/04/22 01:31:51;;;;;;;;;;;19.90;56.30;;;;;;1594180;73;1432;-69
2024/04/22 01:33:52;;;;;;;;;;;19.90;56.20;;;;;;1601482;73;657;-67
2024/04/22 01:35:54;;;;;;;;;;;19.90;56.30;;;;;;1591045;73;723;-67
2024/04/22 01:37:56;;;;;;;;;;;19.90;56.30;;;;;;1606071;73;674;-68
2024/04/22 01:39:58;;;;;;;;;;;20.00;56.30;;;;;;1594567;73;1158;-66
2024/04/22 01:42:00;;;;;;;;;;;19.80;56.30;;;;;;1581303;73;709;-70
2024/04/22 01:44:02;;;;;;;;;;;19.90;56.30;;;;;;1592271;73;1587;-66
2024/04/22 01:46:04;;;;;;;;;;;19.90;56.30;;;;;;1602285;73;778;-68
2024/04/22 01:48:06;;;;;;;;;;;19.80;56.30;;;;;;1603083;73;1909;-67
2024/04/22 01:50:08;;;;;;;;;;;19.90;56.30;;;;;;1596576;73;1173;-68
2024/04/22 01:52:11;;;;;;;;;;;19.90;56.30;;;;;;1595031;73;681;-68
2024/04/22 01:54:13;;;;;;;;;;;19.90;56.40;;;;;;1591387;73;681;-67
2024/04/22 01:56:15;;;;;;;;;;;19.90;56.40;;;;;;1596890;73;734;-71
2024/04/22 01:58:17;;;;;;;;;;;19.90;56.50;;;;;;1597577;73;1316;-67
2024/04/22 02:00:19;;;;;;;;;;;19.90;56.50;;;;;;1598788;73;1088;-69
2024/04/22 02:02:21;;;;;;;;;;;19.90;56.50;;;;;;1591726;73;725;-69
2024/04/22 02:04:23;;;;;;;;;;;19.90;56.50;;;;;;1596528;73;784;-68
2024/04/22 02:06:24;;;;;;;;;;;19.90;56.50;;;;;;1600118;73;604;-67
2024/04/22 02:08:26;;;;;;;;;;;19.90;56.50;;;;;;1599482;73;1944;-69
2024/04/22 02:10:28;;;;;;;;;;;19.90;56.60;;;;;;1591201;73;1143;-70
2024/04/22 02:12:30;;;;;;;;;;;19.80;56.50;;;;;;1597117;73;1315;-69
2024/04/22 02:14:32;;;;;;;;;;;19.90;56.60;;;;;;1599778;73;689;-67
2024/04/22 02:16:34;;;;;;;;;;;19.90;56.60;;;;;;1596180;73;671;-67
2024/04/22 02:18:36;;;;;;;;;;;19.90;56.70;;;;;;1598782;73;758;-68
2024/04/22 02:20:38;;;;;;;;;;;19.90;56.70;;;;;;1594677;73;1178;-66
2024/04/22 02:22:40;;;;;;;;;;;19.90;56.70;;;;;;1609791;73;719;-69
2024/04/22 02:24:42;;;;;;;;;;;19.90;56.60;;;;;;1588881;73;682;-68
2024/04/22 02:26:43;;;;;;;;;;;19.90;56.70;;;;;;1605362;73;1520;-71
2024/04/22 02:28:49;;;;;;;;;;;19.90;56.70;;;;;;1596382;73;1951;-70
2024/04/22 02:30:49;;;;;;;;;;;19.90;56.70;;;;;;1597383;73;1938;-69
2024/04/22 02:32:51;;;;;;;;;;;19.90;56.70;;;;;;1594960;73;769;-67
2024/04/22 02:34:53;;;;;;;;;;;19.80;56.60;;;;;;1604421;73;773;-68
2024/04/22 02:36:55;;;;;;;;;;;19.80;56.50;;;;;;1603747;73;720;-67
2024/04/22 02:38:56;;;;;;;;;;;19.80;56.50;;;;;;1590302;73;713;-69
2024/04/22 02:40:58;;;;;;;;;;;19.90;56.70;;;;;;1596789;73;1252;-70
2024/04/22 02:43:00;;;;;;;;;;;19.90;56.60;;;;;;1606918;73;671;-68
2024/04/22 02:45:02;;;;;;;;;;;19.90;56.70;;;;;;1602218;73;645;-67
2024/04/22 02:47:04;;;;;;;;;;;19.90;56.60;;;;;;1596083;73;735;-67
2024/04/22 02:49:06;;;;;;;;;;;19.90;56.70;;;;;;1601041;73;1905;-68
2024/04/22 02:51:08;;;;;;;;;;;19.90;56.70;;;;;;1605872;73;1128;-69
2024/04/22 02:53:10;;;;;;;;;;;19.90;56.70;;;;;;1594376;73;701;-69
2024/04/22 02:55:12;;;;;;;;;;;19.90;56.60;;;;;;1581462;73;1311;-68
2024/04/22 02:57:14;;;;;;;;;;;20.10;56.80;;;;;;1598918;73;664;-67
2024/04/22 02:59:16;;;;;;;;;;;19.80;56.50;;;;;;1602186;73;755;-70
2024/04/22 03:01:18;;;;;;;;;;;19.80;56.60;;;;;;1596605;73;1148;-69
2024/04/22 03:03:19;;;;;;;;;;;19.90;56.70;;;;;;1592893;73;776;-72
2024/04/22 03:05:21;;;;;;;;;;;19.90;56.70;;;;;;1593200;73;742;-67
2024/04/22 03:07:23;;;;;;;;;;;20.10;56.80;;;;;;1593547;73;812;-69
2024/04/22 03:09:27;;;;;;;;;;;19.80;56.60;;;;;;1596850;73;1917;-70
2024/04/22 03:11:29;;;;;;;;;;;19.90;56.80;;;;;;1601404;73;1662;-69
2024/04/22 03:13:30;;;;;;;;;;;19.90;56.80;;;;;;1599636;73;694;-67
2024/04/22 03:15:32;;;;;;;;;;;19.90;56.80;;;;;;1602175;73;709;-68
2024/04/22 03:17:34;;;;;;;;;;;19.80;56.70;;;;;;1590220;73;691;-68
2024/04/22 03:19:36;;;;;;;;;;;19.80;56.70;;;;;;1595489;73;736;-68
2024/04/22 03:21:38;;;;;;;;;;;19.80;56.70;;;;;;1595741;73;1097;-67
2024/04/22 03:23:40;;;;;;;;;;;19.80;56.70;;;;;;1599407;73;1709;-70
2024/04/22 03:25:42;;;;;;;;;;;19.80;56.70;;;;;;1590892;73;640;-69
2024/04/22 03:27:44;;;;;;;;;;;19.90;56.80;;;;;;1594713;73;617;-69
2024/04/22 03:29:46;;;;;;;;;;;19.90;56.80;;;;;;1593838;73;1899;-68
2024/04/22 03:31:48;;;;;;;;;;;19.80;56.80;;;;;;1596976;73;1072;-68
2024/04/22 03:33:50;;;;;;;;;;;19.80;56.70;;;;;;1602868;73;667;-67
2024/04/22 03:35:52;;;;;;;;;;;19.80;56.80;;;;;;1602675;73;738;-67
2024/04/22 03:37:54;;;;;;;;;;;19.90;56.80;;;;;;1594937;73;1617;-65
2024/04/22 03:39:55;;;;;;;;;;;19.90;56.90;;;;;;1601283;73;1134;-68
2024/04/22 03:41:57;;;;;;;;;;;19.90;56.90;;;;;;1595306;73;742;-69
2024/04/22 03:43:59;;;;;;;;;;;19.90;56.90;;;;;;1596476;73;598;-69
2024/04/22 03:50:40;;;;;;;;;;;19.90;56.90;;;;;;1585808;73;1525;-69
2024/04/22 03:52:42;;;;;;;;;;;19.90;57.10;;;;;;1587001;73;802;-69
2024/04/22 03:54:44;;;;;;;;;;;19.90;57.10;;;;;;1593350;73;750;-69
2024/04/22 03:56:46;;;;;;;;;;;19.90;57.80;;;;;;1590724;73;662;-70
2024/04/22 03:58:48;;;;;;;;;;;19.90;57.10;;;;;;1591795;73;625;-73
2024/04/22 04:00:50;;;;;;;;;;;19.90;57.10;;;;;;1587757;73;1178;-72
2024/04/22 04:02:52;;;;;;;;;;;19.90;57.10;;;;;;1582909;73;625;-70
2024/04/22 04:04:54;;;;;;;;;;;19.90;57.00;;;;;;1583433;73;1328;-71
2024/04/22 04:06:55;;;;;;;;;;;19.90;56.90;;;;;;1594914;73;741;-71
2024/04/22 04:08:57;;;;;;;;;;;19.90;57.00;;;;;;1592829;73;1914;-71
2024/04/22 04:11:11;;;;;;;;;;;19.90;57.00;;;;;;1590810;73;1139;-74
2024/04/22 04:13:06;;;;;;;;;;;19.90;57.00;;;;;;1581826;73;1737;-69
2024/04/22 04:15:08;;;;;;;;;;;19.90;57.10;;;;;;1581461;73;675;-69
2024/04/22 04:17:10;;;;;;;;;;;19.90;57.10;;;;;;1582064;73;841;-69
2024/04/22 04:19:12;;;;;;;;;;;19.90;57.10;;;;;;1597095;73;1308;-70
2024/04/22 04:21:13;;;;;;;;;;;19.90;57.10;;;;;;1590664;73;1169;-71
2024/04/22 04:23:15;;;;;;;;;;;19.90;57.20;;;;;;1588083;73;690;-70
2024/04/22 04:25:17;;;;;;;;;;;19.90;57.90;;;;;;1587959;73;737;-71
2024/04/22 04:27:19;;;;;;;;;;;19.80;57.80;;;;;;1599595;73;710;-68
2024/04/22 04:29:21;;;;;;;;;;;19.90;58.40;;;;;;1595052;73;1946;-69
2024/04/22 04:31:23;;;;;;;;;;;19.90;58.20;;;;;;1596678;73;1162;-70
2024/04/22 04:33:25;;;;;;;;;;;19.90;58.10;;;;;;1593601;73;1408;-67
2024/04/22 04:35:27;;;;;;;;;;;19.90;55.50;;;;;;1595722;73;733;-70
2024/04/22 04:37:29;;;;;;;;;;;19.90;56.30;;;;;;1590286;73;656;-69
2024/04/22 04:39:31;;;;;;;;;;;19.90;56.60;;;;;;1609363;73;669;-71
2024/04/22 04:41:32;;;;;;;;;;;20.00;56.80;;;;;;1611758;73;1125;-70
2024/04/22 04:43:34;;;;;;;;;;;19.90;56.80;;;;;;1596295;73;805;-68
2024/04/22 04:45:36;;;;;;;;;;;19.90;56.80;;;;;;1598619;73;638;-67
2024/04/22 04:47:38;;;;;;;;;;;19.90;56.80;;;;;;1562560;74;1603;-67
2024/04/22 04:49:40;;;;;;;;;;;19.80;56.80;;;;;;1595200;73;1931;-68
2024/04/22 04:51:42;;;;;;;;;;;19.90;56.90;;;;;;1591002;73;1093;-66
2024/04/22 04:53:44;;;;;;;;;;;19.90;56.30;;;;;;1586067;73;737;-68
2024/04/22 04:55:46;;;;;;;;;;;19.90;56.50;;;;;;1599644;73;656;-70
2024/04/22 04:57:48;;;;;;;;;;;19.90;56.50;;;;;;1595976;73;805;-69
2024/04/22 04:59:50;;;;;;;;;;;19.90;56.50;;;;;;1583584;73;1168;-69
2024/04/22 05:01:52;;;;;;;;;;;20.00;56.50;;;;;;1586271;73;1551;-68
2024/04/22 05:03:54;;;;;;;;;;;19.90;56.50;;;;;;1595923;73;741;-69
2024/04/22 05:05:56;;;;;;;;;;;19.90;56.50;;;;;;1586600;73;630;-67
2024/04/22 05:07:58;;;;;;;;;;;19.90;56.40;;;;;;1595460;73;727;-69
2024/04/22 05:10:00;;;;;;;;;;;19.80;56.30;;;;;;1582351;73;1941;-68
2024/04/22 05:12:02;;;;;;;;;;;19.90;56.40;;;;;;1587465;73;683;-68
2024/04/22 05:14:04;;;;;;;;;;;19.80;56.30;;;;;;1586830;73;743;-69
2024/04/22 05:16:06;;;;;;;;;;;19.90;56.30;;;;;;1590164;73;1545;-69
2024/04/22 05:18:08;;;;;;;;;;;19.90;56.30;;;;;;1585878;73;766;-68
2024/04/22 05:20:10;;;;;;;;;;;19.90;56.30;;;;;;1588570;73;1139;-69
2024/04/22 05:22:12;;;;;;;;;;;19.90;56.20;;;;;;1586114;73;806;-68
2024/04/22 05:24:18;;;;;;;;;;;19.90;56.10;;;;;;1582103;73;764;-71
2024/04/22 05:26:17;;;;;;;;;;;19.80;56.00;;;;;;1588609;73;1910;-69
2024/04/22 05:28:22;;;;;;;;;;;19.90;56.00;;;;;;1585242;73;739;-67
2024/04/22 05:30:23;;;;;;;;;;;19.90;56.00;;;;;;1582884;73;1937;-68
2024/04/22 05:32:26;;;;;;;;;;;19.80;55.90;;;;;;1585487;73;707;-68
2024/04/22 05:36:48;;;;;;;;;;;20.10;56.00;;;;;;1591399;73;1679;-69
2024/04/22 05:38:50;;;;;;;;;;;19.80;55.70;;;;;;1591678;73;821;-67
2024/04/22 05:40:52;;;;;;;;;;;19.80;55.70;;;;;;1597394;73;1142;-68
2024/04/22 05:42:54;;;;;;;;;;;19.80;55.70;;;;;;1591895;73;735;-69
2024/04/22 05:44:56;;;;;;;;;;;19.80;55.60;;;;;;1602897;73;1404;-68
2024/04/22 05:46:58;;;;;;;;;;;19.80;55.70;;;;;;1588961;73;861;-68
2024/04/22 05:48:59;;;;;;;;;;;19.80;55.60;;;;;;1587934;73;1935;-67
2024/04/22 05:51:02;;;;;;;;;;;19.90;55.70;;;;;;1594252;73;1121;-71
2024/04/22 05:53:04;;;;;;;;;;;19.80;55.60;;;;;;1597109;73;775;-71
2024/04/22 05:55:06;;;;;;;;;;;19.80;55.50;;;;;;1596841;73;680;-72
2024/04/22 05:57:08;;;;;;;;;;;19.80;55.50;;;;;;1582802;73;1544;-70
2024/04/22 05:59:10;;;;;;;;;;;19.80;55.50;;;;;;1596088;73;728;-68
2024/04/22 06:01:12;;;;;;;;;;;19.80;55.40;;;;;;1594434;73;1149;-69
2024/04/22 06:03:14;;;;;;;;;;;19.80;55.40;;;;;;1591817;73;736;-69
2024/04/22 06:05:16;;;;;;;;;;;19.80;55.30;;;;;;1587715;73;807;-68
2024/04/22 06:07:18;;;;;;;;;;;19.80;55.30;;;;;;1602297;73;728;-67
2024/04/22 06:09:22;;;;;;;;;;;19.80;55.20;;;;;;1598525;73;1930;-67
2024/04/22 06:11:23;;;;;;;;;;;19.80;55.20;;;;;;1585393;73;1675;-68
2024/04/22 06:13:25;;;;;;;;;;;19.80;55.20;;;;;;1601415;73;744;-70
2024/04/22 06:15:27;;;;;;;;;;;19.80;55.20;;;;;;1596886;73;698;-67
2024/04/22 06:17:29;;;;;;;;;;;19.80;55.20;;;;;;1589467;73;734;-68
2024/04/22 06:19:31;;;;;;;;;;;19.80;55.10;;;;;;1584256;73;709;-70
2024/04/22 06:21:33;;;;;;;;;;;19.80;55.10;;;;;;1591256;73;1111;-69
2024/04/22 06:23:35;;;;;;;;;;;19.80;55.10;;;;;;1584350;73;787;-68
2024/04/22 06:25:37;;;;;;;;;;;19.80;55.00;;;;;;1583563;73;1550;-68
2024/04/22 06:27:38;;;;;;;;;;;19.80;55.00;;;;;;1590454;73;693;-68
2024/04/22 06:29:40;;;;;;;;;;;19.70;55.00;;;;;;1584121;73;1938;-68
2024/04/22 06:31:42;;;;;;;;;;;19.80;55.00;;;;;;1585319;73;1118;-70
2024/04/22 06:33:44;;;;;;;;;;;19.70;55.00;;;;;;1588539;73;881;-67
2024/04/22 06:35:46;;;;;;;;;;;19.70;54.90;;;;;;1592445;73;808;-68
2024/04/22 06:37:48;;;;;;;;;;;19.70;54.90;;;;;;1600143;73;730;-67
2024/04/22 06:39:50;;;;;;;;;;;19.80;54.90;;;;;;1599645;73;1686;-66
2024/04/22 06:41:52;;;;;;;;;;;19.80;54.80;;;;;;1601284;73;860;-68
2024/04/22 06:43:54;;;;;;;;;;;19.80;54.80;;;;;;1595065;73;719;-68
2024/04/22 06:45:56;;;;;;;;;;;19.70;54.80;;;;;;1596347;73;765;-68
2024/04/22 06:47:57;;;;;;;;;;;19.80;54.80;;;;;;1592333;73;727;-71
2024/04/22 06:49:59;;;;;;;;;;;19.70;54.70;;;;;;1596402;73;1923;-67
2024/04/22 06:52:01;;;;;;;;;;;19.70;54.70;;;;;;1598016;73;725;-68
2024/04/22 06:54:03;;;;;;;;;;;19.80;54.70;;;;;;1590974;73;1585;-69
2024/04/22 06:56:05;;;;;;;;;;;19.80;54.70;;;;;;1595210;73;732;-68
2024/04/22 06:58:07;;;;;;;;;;;19.70;54.70;;;;;;1601893;73;709;-69
2024/04/22 07:00:09;;;;;;;;;;;19.70;54.70;;;;;;1597341;73;1195;-69
2024/04/22 07:02:11;;;;;;;;;;;19.80;54.70;;;;;;1604447;73;852;-70
2024/04/22 07:04:13;;;;;;;;;;;19.80;54.70;;;;;;1587872;73;676;-69
2024/04/22 07:06:15;;;;;;;;;;;19.70;54.60;;;;;;1594980;73;648;-69
2024/04/22 07:08:18;;;;;;;;;;;19.80;54.60;;;;;;1594313;73;1539;-69
2024/04/22 07:10:20;;;;;;;;;;;19.80;54.60;;;;;;1579298;73;1900;-68
2024/04/22 07:12:22;;;;;;;;;;;19.80;54.70;;;;;;1583105;73;776;-68
2024/04/22 07:14:24;;;;;;;;;;;19.70;54.60;;;;;;1593303;73;650;-70
2024/04/22 07:16:27;;;;;;;;;;;19.80;54.60;;;;;;1593708;73;664;-70
2024/04/22 07:18:29;;;;;;;;;;;19.70;54.60;;;;;;1584492;73;721;-69
2024/04/22 07:20:30;;;;;;;;;;;19.80;54.50;;;;;;1586017;73;1143;-71
2024/04/22 07:22:37;;;;;;;;;;;19.70;54.50;;;;;;1579664;73;1647;-68
2024/04/22 07:24:36;;;;;;;;;;;19.70;54.50;;;;;;1584788;73;1684;-68
2024/04/22 07:26:38;;;;;;;;;;;19.80;54.40;;;;;;1581115;73;688;-70
2024/04/22 07:28:40;;;;;;;;;;;19.70;54.40;;;;;;1590350;73;714;-70
2024/04/22 07:30:42;;;;;;;;;;;19.70;54.50;;;;;;1589317;73;1935;-66
2024/04/22 07:32:44;;;;;;;;;;;19.80;54.40;;;;;;1587072;73;714;-68
2024/04/22 07:34:46;;;;;;;;;;;19.80;54.40;;;;;;1599944;73;817;-69
2024/04/22 07:36:48;;;;;;;;;;;19.70;54.40;;;;;;1596888;73;1393;-69
2024/04/22 07:38:50;;;;;;;;;;;19.70;54.40;;;;;;1561158;74;818;-68
2024/04/22 07:40:53;;;;;;;;;;;19.70;54.40;;;;;;1595872;73;1167;-68
2024/04/22 07:42:55;;;;;;;;;;;19.70;54.40;;;;;;1594206;73;666;-67
2024/04/22 07:44:56;;;;;;;;;;;19.70;54.30;;;;;;1594716;73;655;-69
2024/04/22 07:46:58;;;;;;;;;;;19.70;54.40;;;;;;1603632;73;735;-69
2024/04/22 07:49:00;;;;;;;;;;;19.70;53.50;;;;;;1599986;73;718;-68
2024/04/22 07:51:05;;;;;;;;;;;19.70;53.90;;;;;;1601452;73;1940;-67
2024/04/22 07:53:07;;;;;;;;;;;19.70;54.10;;;;;;1598913;73;752;-69
2024/04/22 07:55:10;;;;;;;;;;;19.80;54.20;;;;;;1602159;73;698;-70
2024/04/22 07:57:13;;;;;;;;;;;19.80;54.20;;;;;;1587488;73;710;-68
2024/04/22 07:59:15;;;;;;;;;;;19.80;54.20;;;;;;1578629;73;719;-69
2024/04/22 08:01:17;;;;;;;;;;;19.70;54.10;;;;;;1582560;73;1086;-68
2024/04/22 08:03:19;;;;;;;;;;;19.80;54.10;;;;;;1583127;73;702;-68
2024/04/22 08:05:21;;;;;;;;;;;19.80;54.00;;;;;;1597586;73;1605;-70
2024/04/22 08:07:23;;;;;;;;;;;19.70;54.00;;;;;;1598146;73;728;-71
2024/04/22 08:09:25;;;;;;;;;;;19.70;54.00;;;;;;1588641;73;883;-70
2024/04/22 08:11:27;;;;;;;;;;;19.80;53.90;;;;;;1594504;73;1953;-71
2024/04/22 08:13:28;;;;;;;;;;;19.80;54.00;;;;;;1603875;73;682;-68
2024/04/22 08:15:30;;;;;;;;;;;19.80;53.90;;;;;;1592060;73;708;-68
2024/04/22 08:17:32;;;;;;;;;;;19.80;53.90;;;;;;1594603;73;725;-67
2024/04/22 08:19:34;;;;;;;;;;;19.80;53.90;;;;;;1586073;73;1480;-69
2024/04/22 08:21:36;;;;;;;;;;;19.80;53.90;;;;;;1604200;73;1160;-69
2024/04/22 08:23:38;;;;;;;;;;;19.80;53.90;;;;;;1593298;73;814;-69
2024/04/22 08:25:41;;;;;;;;;;;19.80;53.90;;;;;;1598030;73;769;-68
2024/04/22 08:27:43;;;;;;;;;;;19.80;53.90;;;;;;1595125;73;1196;-67
2024/04/22 08:29:45;;;;;;;;;;;19.80;53.90;;;;;;1590382;73;793;-68
2024/04/22 08:31:47;;;;;;;;;;;19.80;53.90;;;;;;1594807;73;1948;-71
2024/04/22 08:33:49;;;;;;;;;;;19.80;53.90;;;;;;1599972;73;710;-67
2024/04/22 08:35:51;;;;;;;;;;;19.80;53.90;;;;;;1595752;73;777;-70
2024/04/22 08:37:53;;;;;;;;;;;19.70;53.90;;;;;;1592392;73;716;-70
2024/04/22 08:39:55;;;;;;;;;;;19.80;53.90;;;;;;1587169;73;1147;-67
2024/04/22 08:41:59;;;;;;;;;;;19.80;53.90;;;;;;1592928;73;795;-68
2024/04/22 08:44:00;;;;;;;;;;;19.80;53.90;;;;;;1589065;73;1687;-67
2024/04/22 08:46:02;;;;;;;;;;;19.80;53.90;;;;;;1588800;73;1559;-66
2024/04/22 08:48:04;;;;;;;;;;;19.80;53.90;;;;;;1602151;73;673;-67
2024/04/22 08:50:06;;;;;;;;;;;19.80;53.90;;;;;;1602651;73;1942;-69
2024/04/22 08:52:08;;;;;;;;;;;19.80;53.90;;;;;;1608660;73;721;-68
2024/04/22 08:54:10;;;;;;;;;;;19.70;53.90;;;;;;1606807;73;684;-69
2024/04/22 08:56:12;;;;;;;;;;;19.70;53.90;;;;;;1592498;73;743;-68
2024/04/22 08:58:14;;;;;;;;;;;19.70;53.90;;;;;;1603924;73;751;-67
2024/04/22 09:00:16;;;;;;;;;;;19.80;53.80;;;;;;1605649;73;1548;-68
2024/04/22 09:02:18;;;;;;;;;;;19.70;53.80;;;;;;1598579;73;825;-68
2024/04/22 09:04:20;;;;;;;;;;;19.80;53.80;;;;;;1599286;73;748;-68
2024/04/22 09:06:21;;;;;;;;;;;19.80;53.80;;;;;;1593676;73;723;-68
2024/04/22 09:08:23;;;;;;;;;;;19.70;53.80;;;;;;1594273;73;854;-70
2024/04/22 09:10:25;;;;;;;;;;;19.80;53.80;;;;;;1605794;73;1911;-70
2024/04/22 09:12:27;;;;;;;;;;;19.80;53.80;;;;;;1586839;73;775;-69
2024/04/22 09:14:29;;;;;;;;;;;19.70;53.80;;;;;;1594806;73;1561;-69
2024/04/22 09:16:31;;;;;;;;;;;19.70;53.80;;;;;;1588998;73;763;-69
2024/04/22 09:18:33;;;;;;;;;;;19.70;53.80;;;;;;1567721;74;820;-69
2024/04/22 09:20:36;;;;;;;;;;;19.70;53.70;;;;;;1585495;73;1154;-68
2024/04/22 09:22:38;;;;;;;;;;;19.80;53.70;;;;;;1597615;73;624;-68
2024/04/22 09:24:40;;;;;;;;;;;19.70;53.70;;;;;;1597696;73;739;-68
2024/04/22 09:26:42;;;;;;;;;;;19.80;53.70;;;;;;1595897;73;728;-68
2024/04/22 09:28:44;;;;;;;;;;;19.80;53.80;;;;;;1597658;73;1543;-68
2024/04/22 09:30:45;;;;;;;;;;;19.80;53.70;;;;;;1602157;73;1929;-69
2024/04/22 09:32:48;;;;;;;;;;;19.80;53.70;;;;;;1592805;73;659;-68
2024/04/22 09:34:50;;;;;;;;;;;19.70;53.70;;;;;;1594741;73;813;-68
2024/04/22 09:36:51;;;;;;;;;;;19.80;53.70;;;;;;1589407;73;773;-69
2024/04/22 09:38:53;;;;;;;;;;;19.70;53.70;;;;;;1588347;73;798;-70
2024/04/22 09:40:55;;;;;;;;;;;19.80;53.70;;;;;;1589287;73;1146;-68
2024/04/22 09:42:57;;;;;;;;;;;19.80;53.60;;;;;;1594320;73;1555;-69
2024/04/22 09:44:59;;;;;;;;;;;19.70;53.70;;;;;;1595536;73;780;-68
2024/04/22 09:47:01;;;;;;;;;;;19.80;53.60;;;;;;1591240;73;733;-68
2024/04/22 09:49:03;;;;;;;;;;;19.80;53.70;;;;;;1595908;73;740;-67
2024/04/22 09:51:05;;;;;;;;;;;19.80;53.70;;;;;;1597213;73;1929;-68
2024/04/22 09:53:06;;;;;;;;;;;19.80;53.70;;;;;;1600645;73;766;-70
2024/04/22 09:55:08;;;;;;;;;;;19.80;53.70;;;;;;1586849;73;825;-72
2024/04/22 09:57:10;;;;;;;;;;;19.80;53.70;;;;;;1582906;73;1601;-69
2024/04/22 09:59:12;;;;;;;;;;;19.70;53.70;;;;;;1578545;73;725;-69
2024/04/22 10:01:14;;;;;;;;;;;19.80;53.60;;;;;;1583913;73;1115;-69
2024/04/22 10:03:16;;;;;;;;;;;19.80;53.60;;;;;;1589235;73;782;-69
2024/04/22 10:05:18;;;;;;;;;;;19.80;53.60;;;;;;1591155;73;685;-69
2024/04/22 10:07:20;;;;;;;;;;;19.80;53.60;;;;;;1590412;73;715;-69
2024/04/22 10:09:21;;;;;;;;;;;19.80;53.60;;;;;;1598670;73;782;-69
2024/04/22 10:11:25;;;;;;;;;;;19.70;53.60;;;;;;1591447;73;1926;-68
2024/04/22 10:13:27;;;;;;;;;;;19.70;53.60;;;;;;1569590;73;1152;-68
2024/04/22 10:15:29;;;;;;;;;;;19.80;53.60;;;;;;1607936;73;728;-68
2024/04/22 10:17:31;;;;;;;;;;;19.80;53.60;;;;;;1589532;73;1263;-68
2024/04/22 10:19:36;;;;;;;;;;;19.80;53.60;;;;;;1600511;73;823;-69
2024/04/22 10:21:41;;;;;;;;;;;19.80;53.50;;;;;;1591103;73;1135;-68
2024/04/22 10:23:43;;;;;;;;;;;20.00;53.60;;;;;;1581964;73;764;-71
2024/04/22 10:25:45;;;;;;;;;;;20.00;53.60;;;;;;1603793;73;1498;-67
2024/04/22 10:27:47;;;;;;;;;;;19.80;53.50;;;;;;1594600;73;726;-69
2024/04/22 10:29:50;;;;;;;;;;;19.80;52.60;;;;;;1599914;73;856;-70
2024/04/22 10:31:52;;;;;;;;;;;19.70;53.00;;;;;;1596702;73;1940;-68
2024/04/22 10:33:55;;;;;;;;;;;19.70;53.10;;;;;;1588009;73;675;-68
2024/04/22 10:35:57;;;;;;;;;;;19.80;53.20;;;;;;1587167;73;769;-67
2024/04/22 10:37:59;;;;;;;;;;;19.80;53.30;;;;;;1589738;73;764;-68
2024/04/22 10:40:01;;;;;;;;;;;19.80;53.30;;;;;;1593153;73;1585;-70
2024/04/22 10:42:03;;;;;;;;;;;19.80;53.30;;;;;;1589171;73;777;-68
2024/04/22 10:44:04;;;;;;;;;;;19.80;53.40;;;;;;1595050;73;705;-70
2024/04/22 10:46:06;;;;;;;;;;;19.80;53.40;;;;;;1588404;73;671;-68
2024/04/22 10:48:08;;;;;;;;;;;19.80;53.40;;;;;;1588158;73;670;-69
2024/04/22 10:50:14;;;;;;;;;;;19.80;53.40;;;;;;1580334;73;1167;-66
2024/04/22 10:52:15;;;;;;;;;;;19.80;53.40;;;;;;1595268;73;1941;-67
2024/04/22 10:54:17;;;;;;;;;;;19.80;53.40;;;;;;1590453;73;1611;-67
2024/04/22 10:56:19;;;;;;;;;;;19.80;53.40;;;;;;1592619;73;1125;-67
2024/04/22 10:58:22;;;;;;;;;;;19.70;53.40;;;;;;1585942;73;1204;-69
2024/04/22 11:00:23;;;;;;;;;;;19.80;53.40;;;;;;1588933;73;1315;-68
2024/04/22 11:02:25;;;;;;;;;;;19.80;53.50;;;;;;1585952;73;1332;-71
2024/04/22 11:04:27;;;;;;;;;;;19.80;53.40;;;;;;1547875;74;1410;-67
2024/04/22 11:06:29;;;;;;;;;;;19.70;53.40;;;;;;1586166;73;1539;-67
2024/04/22 11:08:31;;;;;;;;;;;19.80;53.40;;;;;;1588032;73;712;-68
2024/04/22 11:10:33;;;;;;;;;;;19.70;53.40;;;;;;1587012;73;1179;-68
2024/04/22 11:12:35;;;;;;;;;;;19.80;53.50;;;;;;1577467;73;1934;-68
2024/04/22 11:14:37;;;;;;;;;;;19.80;53.50;;;;;;1591126;73;908;-69
2024/04/22 11:16:38;;;;;;;;;;;19.80;53.40;;;;;;1581600;73;708;-68
2024/04/22 11:18:40;;;;;;;;;;;19.70;53.50;;;;;;1591461;73;719;-67
2024/04/22 11:20:42;;;;;;;;;;;19.70;53.50;;;;;;1531328;75;1198;-67
2024/04/22 11:22:44;;;;;;;;;;;19.80;53.50;;;;;;1543242;74;738;-67
2024/04/22 11:24:46;;;;;;;;;;;19.80;53.40;;;;;;1548060;75;1546;-68
2024/04/22 11:26:48;;;;;;;;;;;19.80;53.40;;;;;;1543947;75;668;-67
2024/04/22 11:28:52;;;;;;;;;;;19.80;53.50;;;;;;1534978;75;723;-68
2024/04/22 11:30:54;;;;;;;;;;;19.80;53.40;;;;;;1559127;74;1662;-68
2024/04/22 11:32:56;;;;;;;;;;;19.80;53.50;;;;;;1551008;75;1909;-66
2024/04/22 11:34:58;;;;;;;;;;;19.80;53.50;;;;;;1597391;73;1352;-67
2024/04/22 11:37:01;;;;;;;;;;;19.80;53.50;;;;;;1591082;73;670;-66
2024/04/22 11:39:10;;;;;;;;;;;19.70;53.50;;;;;;1599156;73;1456;-65
2024/04/22 11:41:12;;;;;;;;;;;19.80;53.50;;;;;;1592713;73;1087;-69
2024/04/22 11:43:14;;;;;;;;;;;19.80;53.50;;;;;;1586768;73;659;-67
2024/04/22 11:45:17;;;;;;;;;;;19.80;53.50;;;;;;1594596;73;783;-67
2024/04/22 11:47:18;;;;;;;;;;;19.80;53.50;;;;;;1598289;73;687;-69
2024/04/22 11:49:20;;;;;;;;;;;19.80;53.60;;;;;;1597035;73;858;-70
2024/04/22 11:51:22;;;;;;;;;;;19.80;53.60;;;;;;1602650;73;1948;-68
2024/04/22 11:53:24;;;;;;;;;;;19.80;53.50;;;;;;1591466;73;1584;-67
2024/04/22 11:55:26;;;;;;;;;;;19.80;53.50;;;;;;1601999;73;732;-67
2024/04/22 11:57:28;;;;;;;;;;;19.70;53.50;;;;;;1596818;73;688;-69
2024/04/22 11:59:30;;;;;;;;;;;19.80;53.50;;;;;;1592041;73;666;-67
2024/04/22 12:01:32;;;;;;;;;;;19.80;53.40;;;;;;1597630;73;1135;-69
2024/04/22 12:03:35;;;;;;;;;;;19.80;53.50;;;;;;1593735;73;738;-69
2024/04/22 12:05:37;;;;;;;;;;;19.80;53.40;;;;;;1596756;73;1345;-67
2024/04/22 12:07:42;;;;;;;;;;;19.80;53.40;;;;;;1597416;73;1340;-67
2024/04/22 12:09:42;;;;;;;;;;;19.80;53.40;;;;;;1591643;73;1469;-66
2024/04/22 12:11:44;;;;;;;;;;;19.80;53.40;;;;;;1594024;73;1927;-70
2024/04/22 12:13:46;;;;;;;;;;;19.80;53.40;;;;;;1593099;73;650;-68